BIENTÔT MET'MAP
version 2.0 !

Prévue avant fin octobre,
la nouvelle version sera
plus belle, plus complète
et hébergée sur un serveur
3 fois plus puissant...
et toujours gratuite !


Pas compatible ?
Essayez la version Mobile !

SE CONNECTER : | S'inscrire | Disclaimer | Découvrir Orbifly |
Code OACI :

TAF - LIPR Federico Fellini Int. Rimini - 02 Jun 2020 05:08 UTC
Data Sources :     NOAA   


- Altitude de l'aérodrome : 40 ft
- Code IATA : RMI
- Pas de NOTAMs connus.


LIPR - Federico Fellini Int. Rimini

Dernier METAR connu : 2015/08/11 07:45 LIPR 110745Z 27005KT CAVOK 26/19 Q1012
TAF TAF LIPR
Valide du 01 à 21h jusqu'au 02 à 06h UTC


012000Z 0121/0206 VRB05KT 9999 FEW020

Source NOAA


MET'MAP, la Météo Aéronautique d'un coup d'oeil ! - Copyright ORBIFLY Décembre 2007

Développement & Programmation : Alexandra Zaïnal
Co-Développement : Marc-Olivier Méhu
Soutien technique & logistique : Manuel Goepfert
Conception & Financement : Baudouin d'Aumeries